Página principal
METAR-TAF:

METAR-TAF

Aeroportos :

Hagåtña, Guam, Estados Unidos

latitude: 13-29N, longitude: 144-48E, altura: 91 m

Observação actual do tempo

O boletim foi feito há 11 minutos, às 15:54 UTC
Vento calmo
Temperatura 26°C
Humidade 100%
Pressão 1011 hPa
Visibilidade: 16.1 km
Céu limpo

METAR: PGUM 231554Z AUTO 00000KT 10SM CLR 26/26 A2985 RMK AO2 SLP099 T02560256

Hora: 02:05 (16:05 UTC)

Previsão

O boletim foi feito há 4 horas e 45 minutos, às 11:20 UTC
Previsão válida de 23 às 12 UTC a 24 às 18 UTC
Vento 4 kt de sudeste
Visibilidade: 10 km
Nuvens dispersasa uma altura de 1500 ft
Nuvens dispersasa uma altura de 3000 ft
Nuvens fragmentadasa uma altura de 12000 ft
aguaceiros nas vizinhanças

TAF: PGUM 231120Z 2312/2418 14004KT P6SM VCSH SCT015 SCT030 BKN120

Observações e previsões do tempo de mais de 4000 aeroportos (mensagens METAR e TAF).

As estações disponíveis são os pontos amarelos e vermelhos sobre o mapa.

Mova o rato sobre o mapa para ver o nome da estação.

Depois clique no ponto para visualizar as observações e previsões meteorológicas.

Para alterar o mapa : clique nos botões verdes com uma cruz preta para aumentar o zoom; no botão verde com uma pitada de zoom; ou nas setas verdes para mapas adjacentes.


METAR-TAF: